Search for airport 
image banner adimage banner adimage banner ad
image banner ad

Y48 - Belmond Muni

Located in Belmond, United States

ICAO - Y48, IATA -

Data provided by Airmate  

General information

Coordinates: N42°51'10" W93°35'41"
Elevation is 1201 feet MSL.
Magnetic variation is 04° East
View others Airports in Iowa

Operational data

Special qualification required
Current time UTC:
Current local time:
Weather at : KCAV - Clarion Muni ( 18 km )
METAR: KCAV 150955Z AUTO 00000KT 10SM FEW046 14/09 A3011 RMK A01
View NOTAMs / SUP AIP / TFR affecting this airport [VIEW]
Communications frequencies: [VIEW]

Runways:

RWY identifierQFULength (ft)Width (ft)SurfaceLDA (ft)
17324595GRASS
35324595GRASS

Airport contact information

Address: Belmond United States

Satellite view of Y48